Time;durP1;ratioP1;P1;durP2;ratioP2;P2;SDS_P1;SDS_P2;PMS_P1;PMS_P2;Temp;Humidity;BMP_temperature;BMP_pressure;BME280_temperature;BME280_humidity;BME280_pressure;Samples;Min_cycle;Max_cycle;Signal;HPM_P1;HPM_P2
2022/04/19 00:00:54;;;;;;;3.80;2.37;;;10.00;99.90;;;;;;5073845;28;20440;-82
2022/04/19 00:03:20;;;;;;;3.13;2.30;;;9.90;99.90;;;;;;5084023;28;20451;-83
2022/04/19 00:05:49;;;;;;;3.30;1.90;;;9.80;99.90;;;;;;5077872;28;20443;-82
2022/04/19 00:08:16;;;;;;;3.67;2.40;;;9.80;99.90;;;;;;5093988;28;20445;-81
2022/04/19 00:10:43;;;;;;;3.53;2.40;;;9.80;99.90;;;;;;5071722;28;20472;-83
2022/04/19 00:13:11;;;;;;;3.17;2.50;;;9.70;99.90;;;;;;5067248;28;20461;-83
2022/04/19 00:15:38;;;;;;;3.23;2.07;;;9.70;99.90;;;;;;5072591;28;20440;-83
2022/04/19 00:18:06;;;;;;;3.90;2.30;;;9.70;99.90;;;;;;5078151;28;20605;-83
2022/04/19 00:20:33;;;;;;;4.27;2.83;;;9.60;99.90;;;;;;5070392;28;20528;-83
2022/04/19 00:22:59;;;;;;;4.20;2.30;;;9.60;99.90;;;;;;5058174;28;20449;-83
2022/04/19 00:25:25;;;;;;;3.87;2.50;;;9.50;99.90;;;;;;5092467;28;20466;-83
2022/04/19 00:27:50;;;;;;;4.50;2.30;;;9.40;99.90;;;;;;5062432;28;20544;-83
2022/04/19 00:30:16;;;;;;;3.40;2.30;;;9.40;99.90;;;;;;5074376;28;20489;-83
2022/04/19 00:32:42;;;;;;;5.63;2.50;;;9.40;99.90;;;;;;5073399;28;20251;-83
2022/04/19 00:35:11;;;;;;;3.80;2.13;;;9.40;99.90;;;;;;5073735;28;20221;-82
2022/04/19 00:37:38;;;;;;;3.20;2.40;;;9.30;99.90;;;;;;5073645;28;20561;-83
2022/04/19 00:40:08;;;;;;;3.67;2.37;;;9.20;99.90;;;;;;5074429;28;20444;-82
2022/04/19 00:42:34;;;;;;;3.07;2.10;;;9.20;99.90;;;;;;5072554;28;20953;-82
2022/04/19 00:45:06;;;;;;;3.00;2.00;;;9.20;99.90;;;;;;5072895;28;20571;-82
2022/04/19 00:47:32;;;;;;;3.57;2.40;;;9.20;99.90;;;;;;5073199;28;20439;-83
2022/04/19 00:50:02;;;;;;;3.50;2.37;;;9.10;99.90;;;;;;5073382;28;20443;-83
2022/04/19 00:52:29;;;;;;;3.23;2.00;;;9.10;99.90;;;;;;5073869;28;20463;-83
2022/04/19 00:54:55;;;;;;;4.33;2.80;;;9.10;99.90;;;;;;5073603;28;20769;-83
2022/04/19 00:57:22;;;;;;;3.40;2.63;;;9.00;99.90;;;;;;5072937;28;20431;-82
2022/04/19 00:59:56;;;;;;;4.03;2.50;;;8.90;99.90;;;;;;5072869;28;20195;-82
2022/04/19 01:02:22;;;;;;;3.43;2.40;;;8.90;99.90;;;;;;5068072;28;20443;-83
2022/04/19 01:04:52;;;;;;;2.70;2.00;;;8.90;99.90;;;;;;5091727;28;20976;-82
2022/04/19 01:07:19;;;;;;;4.87;2.90;;;8.80;99.90;;;;;;5068019;28;20890;-83
2022/04/19 01:09:46;;;;;;;5.13;2.83;;;8.80;99.90;;;;;;5073199;28;20444;-82
2022/04/19 01:15:01;;;;;;;4.40;2.53;;;8.80;99.90;;;;;;5095473;28;20420;-83
2022/04/19 01:17:27;;;;;;;5.93;2.77;;;8.80;99.90;;;;;;5076705;28;20436;-83
2022/04/19 01:19:54;;;;;;;4.77;2.80;;;8.80;99.90;;;;;;5076655;28;20437;-83
2022/04/19 01:22:20;;;;;;;3.63;2.80;;;8.80;99.90;;;;;;5077026;28;20440;-83
2022/04/19 01:24:46;;;;;;;3.27;2.27;;;8.70;99.90;;;;;;5077944;28;21043;-83
2022/04/19 01:27:13;;;;;;;3.53;2.63;;;8.70;99.90;;;;;;5070230;28;20179;-83
2022/04/19 01:29:39;;;;;;;3.77;2.60;;;8.70;99.90;;;;;;5090452;28;20185;-82
2022/04/19 01:32:06;;;;;;;3.57;2.33;;;8.70;99.90;;;;;;5063947;28;20463;-83
2022/04/19 01:34:32;;;;;;;7.77;2.77;;;8.60;99.90;;;;;;5069135;28;20516;-82
2022/04/19 01:36:58;;;;;;;4.53;2.67;;;8.60;99.90;;;;;;5087260;28;20448;-83
2022/04/19 01:42:08;;;;;;;3.90;2.40;;;8.60;99.90;;;;;;5092277;28;20693;-83
2022/04/19 01:44:36;;;;;;;4.00;2.30;;;8.50;99.90;;;;;;5077250;28;20452;-83
2022/04/19 01:47:02;;;;;;;3.33;2.17;;;8.50;99.90;;;;;;5077014;28;20463;-82
2022/04/19 01:49:28;;;;;;;4.77;2.77;;;8.40;99.90;;;;;;5076944;28;20933;-83
2022/04/19 01:51:54;;;;;;;3.63;2.53;;;8.40;99.90;;;;;;5077062;28;20965;-83
2022/04/19 01:54:20;;;;;;;4.00;2.73;;;8.40;99.90;;;;;;5077002;28;20420;-83
2022/04/19 01:56:45;;;;;;;3.10;2.60;;;8.30;99.90;;;;;;5076019;28;20217;-83
2022/04/19 01:59:12;;;;;;;3.53;2.73;;;8.30;99.90;;;;;;5076766;28;20185;-82
2022/04/19 02:01:38;;;;;;;3.03;2.20;;;8.30;99.90;;;;;;5064856;28;20256;-82
2022/04/19 02:04:04;;;;;;;4.80;2.80;;;8.30;99.90;;;;;;5065026;28;20459;-83
2022/04/19 02:06:30;;;;;;;3.87;2.40;;;8.20;99.90;;;;;;5072980;28;20183;-83
2022/04/19 02:08:56;;;;;;;4.40;2.57;;;8.20;99.90;;;;;;5092884;28;20465;-83
2022/04/19 02:11:24;;;;;;;4.63;3.30;;;8.20;99.90;;;;;;5088594;28;20450;-83
2022/04/19 02:13:51;;;;;;;3.87;2.53;;;8.20;99.90;;;;;;5083340;28;20816;-83
2022/04/19 02:16:17;;;;;;;3.13;2.70;;;8.10;99.90;;;;;;5076021;28;20524;-82
2022/04/19 02:18:43;;;;;;;3.90;2.80;;;8.10;99.90;;;;;;5071533;28;20445;-83
2022/04/19 02:21:09;;;;;;;5.50;3.07;;;8.10;99.90;;;;;;5079796;28;20454;-83
2022/04/19 02:23:38;;;;;;;6.00;3.00;;;8.10;99.90;;;;;;5086119;28;20540;-82
2022/04/19 02:26:04;;;;;;;4.90;2.93;;;8.10;99.90;;;;;;5084023;28;20935;-83
2022/04/19 02:28:31;;;;;;;4.20;2.57;;;8.00;99.90;;;;;;5073690;28;20413;-84
2022/04/19 02:30:57;;;;;;;3.80;2.97;;;8.00;99.90;;;;;;5076464;28;20800;-85
2022/04/19 02:33:23;;;;;;;4.07;2.70;;;8.00;99.90;;;;;;5069806;28;20453;-84
2022/04/19 02:35:49;;;;;;;4.17;2.97;;;7.90;99.90;;;;;;5062352;28;20940;-85
2022/04/19 02:38:15;;;;;;;4.53;3.00;;;7.90;99.90;;;;;;5080189;28;20466;-85
2022/04/19 02:40:41;;;;;;;4.47;2.83;;;7.90;99.90;;;;;;5097230;28;20892;-85
2022/04/19 02:43:07;;;;;;;6.33;2.97;;;7.80;99.90;;;;;;5088006;28;20497;-84
2022/04/19 02:45:33;;;;;;;4.60;2.70;;;7.80;99.90;;;;;;5088036;28;20293;-85
2022/04/19 02:48:03;;;;;;;4.50;2.47;;;7.90;99.90;;;;;;5077713;28;20181;-84
2022/04/19 02:50:33;;;;;;;6.30;3.27;;;7.80;99.90;;;;;;5075473;28;20407;-84
2022/04/19 02:53:00;;;;;;;5.00;2.93;;;7.80;99.90;;;;;;5075296;28;20808;-84
2022/04/19 02:55:27;;;;;;;3.80;2.53;;;7.80;99.90;;;;;;5075366;28;20421;-84
2022/04/19 02:57:53;;;;;;;4.30;2.20;;;7.70;99.90;;;;;;5080844;28;20954;-84
2022/04/19 03:00:20;;;;;;;4.60;2.73;;;7.70;99.90;;;;;;5092214;28;20455;-84
2022/04/19 03:02:46;;;;;;;3.20;2.50;;;7.60;99.90;;;;;;5075324;28;20515;-85
2022/04/19 03:05:12;;;;;;;5.43;3.33;;;7.60;99.90;;;;;;5095810;28;20462;-84
2022/04/19 03:07:38;;;;;;;4.70;3.37;;;7.60;99.90;;;;;;5075425;28;20449;-84
2022/04/19 03:10:04;;;;;;;5.13;3.83;;;7.60;99.90;;;;;;5077594;28;20244;-84
2022/04/19 03:12:29;;;;;;;3.43;2.80;;;7.50;99.90;;;;;;5075022;28;20201;-84
2022/04/19 03:14:55;;;;;;;5.20;3.10;;;7.50;99.90;;;;;;5071515;28;20969;-84
2022/04/19 03:17:21;;;;;;;3.90;3.00;;;7.50;99.90;;;;;;5074443;28;20615;-84
2022/04/19 03:19:46;;;;;;;5.00;2.73;;;7.40;99.90;;;;;;5092264;28;20188;-85
2022/04/19 03:22:12;;;;;;;4.47;2.93;;;7.30;99.90;;;;;;5084301;28;20271;-85
2022/04/19 03:30:06;;;;;;;3.37;2.60;;;7.20;99.90;;;;;;5113882;28;20419;-84
2022/04/19 03:32:32;;;;;;;5.03;2.93;;;7.20;99.90;;;;;;5084636;28;20465;-85
2022/04/19 03:34:58;;;;;;;4.33;2.97;;;7.20;99.90;;;;;;5080230;28;20428;-84
2022/04/19 03:37:23;;;;;;;5.00;2.97;;;7.10;99.90;;;;;;5078233;28;20240;-84
2022/04/19 03:39:49;;;;;;;3.50;2.93;;;7.10;99.90;;;;;;5097553;28;20195;-84
2022/04/19 03:42:15;;;;;;;4.30;2.73;;;7.10;99.90;;;;;;5091918;28;20253;-84
2022/04/19 03:44:44;;;;;;;3.67;2.57;;;7.10;99.90;;;;;;5062094;28;20196;-84
2022/04/19 03:47:10;;;;;;;4.13;2.80;;;7.00;99.90;;;;;;5086911;28;20464;-85
2022/04/19 03:49:41;;;;;;;6.13;3.33;;;7.00;99.90;;;;;;5090080;28;20469;-84
2022/04/19 03:52:08;;;;;;;4.00;2.70;;;7.00;99.90;;;;;;5082913;28;20200;-84
2022/04/19 03:54:34;;;;;;;5.23;2.67;;;6.90;99.90;;;;;;5071007;28;20837;-85
2022/04/19 03:57:06;;;;;;;3.93;2.43;;;6.90;99.90;;;;;;5073608;28;20548;-84
2022/04/19 03:59:33;;;;;;;4.07;2.77;;;7.00;99.90;;;;;;5094209;28;20876;-84
2022/04/19 04:01:59;;;;;;;6.10;3.97;;;6.90;99.90;;;;;;5081035;28;20480;-84
2022/04/19 04:04:36;;;;;;;3.93;2.70;;;6.90;99.90;;;;;;5074132;28;21007;-85
2022/04/19 04:07:06;;;;;;;3.70;2.70;;;7.00;99.90;;;;;;5057041;28;20877;-84
2022/04/19 04:09:32;;;;;;;4.40;3.07;;;7.00;99.90;;;;;;5073605;28;20445;-85
2022/04/19 04:12:09;;;;;;;4.70;2.73;;;7.00;99.90;;;;;;5074020;28;20437;-85
2022/04/19 04:14:35;;;;;;;4.20;2.60;;;7.00;99.90;;;;;;5076350;28;20894;-85
2022/04/19 04:17:02;;;;;;;3.80;2.97;;;7.00;99.90;;;;;;5073432;28;20450;-84
2022/04/19 04:19:27;;;;;;;3.63;2.50;;;7.00;99.90;;;;;;5073846;28;20464;-84
2022/04/19 04:21:53;;;;;;;3.57;2.70;;;7.00;99.90;;;;;;5068256;28;21157;-84
2022/04/19 04:24:19;;;;;;;4.90;2.67;;;6.90;99.90;;;;;;5063553;28;20211;-85
2022/04/19 04:26:44;;;;;;;4.60;2.90;;;6.90;99.90;;;;;;5091014;28;20187;-84
2022/04/19 04:29:10;;;;;;;4.23;2.73;;;6.90;99.90;;;;;;5054822;28;20635;-85
2022/04/19 04:31:36;;;;;;;4.43;2.77;;;6.90;99.90;;;;;;5090684;28;20210;-84
2022/04/19 04:34:02;;;;;;;5.43;3.63;;;7.00;99.90;;;;;;5075112;28;20197;-84
2022/04/19 04:36:28;;;;;;;4.07;2.93;;;7.10;99.90;;;;;;5073703;28;20249;-84
2022/04/19 04:38:53;;;;;;;5.33;2.83;;;7.10;99.90;;;;;;5081929;28;20542;-84
2022/04/19 04:41:19;;;;;;;5.13;2.87;;;7.10;99.90;;;;;;5094147;28;20504;-84
2022/04/19 04:43:45;;;;;;;4.40;3.30;;;7.10;99.90;;;;;;5087639;28;20189;-85
2022/04/19 04:51:38;;;;;;;4.80;3.00;;;7.00;99.90;;;;;;5096142;28;20969;-84
2022/04/19 04:54:04;;;;;;;4.30;3.03;;;7.00;99.90;;;;;;5077886;28;20414;-84
2022/04/19 04:56:30;;;;;;;4.10;2.87;;;6.90;99.90;;;;;;5077790;28;20714;-85
2022/04/19 04:58:56;;;;;;;5.20;3.20;;;6.90;99.90;;;;;;5079369;28;20189;-84
2022/04/19 05:01:22;;;;;;;3.20;2.43;;;6.90;99.90;;;;;;5080233;28;20185;-84
2022/04/19 05:03:47;;;;;;;5.53;3.47;;;6.80;99.90;;;;;;5077924;28;20649;-85
2022/04/19 05:06:13;;;;;;;5.33;2.73;;;6.80;99.90;;;;;;5079555;28;20608;-85
2022/04/19 05:08:39;;;;;;;4.30;2.40;;;6.80;99.90;;;;;;5094637;28;20173;-84
2022/04/19 05:11:04;;;;;;;3.97;2.40;;;6.80;99.90;;;;;;5077494;28;20199;-86
2022/04/19 05:16:05;;;;;;;3.50;2.50;;;6.80;99.90;;;;;;4858553;22;20241;-77
2022/04/19 05:18:31;;;;;;;3.40;2.70;;;6.90;99.90;;;;;;5100813;28;20449;-77
2022/04/19 05:20:57;;;;;;;4.10;3.10;;;7.00;99.90;;;;;;5082278;28;20594;-77
2022/04/19 05:23:23;;;;;;;4.33;3.23;;;7.00;99.90;;;;;;5090712;28;20173;-77
2022/04/19 05:25:49;;;;;;;3.60;2.90;;;7.00;99.90;;;;;;5091993;28;20229;-77
2022/04/19 05:28:14;;;;;;;4.33;3.07;;;7.10;99.90;;;;;;5091794;28;20493;-77
2022/04/19 05:30:41;;;;;;;5.40;3.10;;;7.20;99.90;;;;;;5085423;28;20266;-77
2022/04/19 05:33:07;;;;;;;4.70;2.50;;;7.30;99.90;;;;;;5090436;28;20442;-77
2022/04/19 05:35:33;;;;;;;4.07;2.83;;;7.30;99.90;;;;;;5091999;28;20549;-77
2022/04/19 05:37:59;;;;;;;3.53;2.53;;;7.40;99.90;;;;;;5083866;28;20463;-77
2022/04/19 05:40:25;;;;;;;4.33;3.10;;;7.50;99.90;;;;;;5084872;28;20532;-77
2022/04/19 05:42:51;;;;;;;4.70;3.37;;;7.60;99.90;;;;;;5085293;28;20443;-77
2022/04/19 05:45:18;;;;;;;4.53;2.97;;;7.70;99.90;;;;;;5084934;28;20957;-77
2022/04/19 05:47:44;;;;;;;3.83;2.90;;;7.80;99.90;;;;;;5103624;28;20480;-77
2022/04/19 05:50:10;;;;;;;4.87;3.10;;;7.90;99.90;;;;;;5092088;28;21266;-77
2022/04/19 05:52:36;;;;;;;4.50;3.10;;;8.10;99.90;;;;;;5092626;28;20439;-77
2022/04/19 05:55:03;;;;;;;4.50;3.00;;;8.20;99.90;;;;;;5086299;28;20447;-77
2022/04/19 05:57:29;;;;;;;5.03;3.80;;;8.40;99.90;;;;;;5084062;28;20461;-77
2022/04/19 05:59:55;;;;;;;4.07;3.43;;;8.40;99.90;;;;;;5087670;28;20449;-77
2022/04/19 06:05:05;;;;;;;6.03;3.37;;;8.70;99.90;;;;;;5112634;28;20310;-77
2022/04/19 06:07:31;;;;;;;4.97;3.40;;;8.80;99.90;;;;;;5081456;28;20464;-77
2022/04/19 06:09:58;;;;;;;4.90;3.63;;;8.90;99.90;;;;;;5085577;28;20416;-77
2022/04/19 06:12:24;;;;;;;4.50;3.30;;;9.10;99.90;;;;;;5103277;28;20426;-77
2022/04/19 06:14:50;;;;;;;5.40;3.60;;;9.20;99.90;;;;;;5115075;28;20957;-78
2022/04/19 06:17:17;;;;;;;5.43;3.30;;;9.40;99.90;;;;;;5100837;28;20463;-77
2022/04/19 06:19:44;;;;;;;5.20;4.13;;;9.50;99.90;;;;;;5097804;28;20957;-77
2022/04/19 06:22:10;;;;;;;6.60;3.43;;;9.60;99.90;;;;;;5098600;28;20548;-77
2022/04/19 06:24:36;;;;;;;6.80;3.50;;;9.80;99.90;;;;;;5098840;28;20847;-76
2022/04/19 06:27:02;;;;;;;6.47;4.37;;;9.90;99.90;;;;;;5097529;28;20435;-77
2022/04/19 06:29:28;;;;;;;4.80;4.00;;;10.10;99.90;;;;;;5104706;28;20978;-77
2022/04/19 06:31:54;;;;;;;5.27;4.00;;;10.20;99.90;;;;;;5111948;28;20479;-76
2022/04/19 06:34:20;;;;;;;6.40;4.67;;;10.30;99.90;;;;;;5090175;28;20185;-76
2022/04/19 06:36:46;;;;;;;4.77;3.87;;;10.40;99.90;;;;;;5096547;28;20200;-78
2022/04/19 06:39:12;;;;;;;8.57;4.43;;;10.50;99.90;;;;;;5097895;28;20513;-77
2022/04/19 06:41:38;;;;;;;5.87;4.03;;;10.60;99.90;;;;;;5099306;28;20182;-79
2022/04/19 06:44:05;;;;;;;6.20;4.93;;;10.80;99.90;;;;;;5107526;28;20511;-78
2022/04/19 06:46:31;;;;;;;5.20;4.13;;;10.90;99.90;;;;;;5092530;28;20231;-79
2022/04/19 06:48:58;;;;;;;5.83;4.37;;;11.00;99.90;;;;;;5097107;28;20462;-77
2022/04/19 06:51:25;;;;;;;6.60;4.90;;;11.10;99.90;;;;;;5110995;28;20796;-77
2022/04/19 06:53:51;;;;;;;5.27;3.90;;;11.20;99.90;;;;;;5097386;28;20820;-77
2022/04/19 06:56:18;;;;;;;5.80;4.20;;;11.30;99.90;;;;;;5094170;28;20494;-80
2022/04/19 06:58:44;;;;;;;5.70;3.93;;;11.50;99.90;;;;;;5096541;28;20440;-78
2022/04/19 07:01:10;;;;;;;5.10;3.90;;;11.60;99.90;;;;;;5103936;28;20435;-82
2022/04/19 07:03:37;;;;;;;4.83;3.47;;;11.70;99.90;;;;;;5111650;28;20451;-81
2022/04/19 07:06:04;;;;;;;4.67;3.77;;;11.80;99.90;;;;;;5106367;28;20500;-82
2022/04/19 07:08:30;;;;;;;4.63;3.40;;;11.90;99.90;;;;;;5104275;28;20442;-83
2022/04/19 07:10:57;;;;;;;5.13;3.73;;;12.00;99.90;;;;;;5103201;28;20432;-81
2022/04/19 07:13:27;;;;;;;5.30;4.00;;;12.10;99.90;;;;;;5110457;28;20446;-80
2022/04/19 07:15:53;;;;;;;6.80;4.20;;;12.30;99.90;;;;;;5093085;28;21199;-82
2022/04/19 07:18:23;;;;;;;5.70;4.40;;;12.40;99.90;;;;;;5094362;28;20444;-78
2022/04/19 07:29:03;;;;;;;6.10;4.53;;;12.80;99.90;;;;;;5116896;28;20450;-81
2022/04/19 07:31:29;;;;;;;6.60;3.83;;;12.90;99.90;;;;;;5095325;28;20508;-79
2022/04/19 07:33:55;;;;;;;6.17;4.60;;;12.90;99.90;;;;;;5095660;28;20975;-78
2022/04/19 07:36:21;;;;;;;5.40;4.20;;;13.10;99.90;;;;;;5092773;28;20459;-77
2022/04/19 07:38:47;;;;;;;5.17;4.00;;;13.20;99.90;;;;;;5087828;28;20190;-77
2022/04/19 07:41:12;;;;;;;4.90;4.30;;;13.30;99.90;;;;;;5090010;28;20690;-78
2022/04/19 07:43:38;;;;;;;4.40;3.60;;;13.30;99.90;;;;;;5082068;28;20522;-77
2022/04/19 07:46:05;;;;;;;5.93;4.03;;;13.30;99.90;;;;;;5090178;28;20220;-78
2022/04/19 07:48:31;;;;;;;6.03;4.30;;;13.40;99.90;;;;;;5090265;28;20450;-80
2022/04/19 07:50:57;;;;;;;5.60;4.13;;;13.50;99.90;;;;;;5079640;28;20806;-78
2022/04/19 07:53:23;;;;;;;6.07;4.20;;;13.60;99.90;;;;;;5094169;28;20800;-79
2022/04/19 07:55:49;;;;;;;6.23;3.43;;;13.70;99.90;;;;;;5093172;28;20539;-80
2022/04/19 07:58:15;;;;;;;5.70;3.77;;;13.70;99.90;;;;;;5098736;28;20614;-78
2022/04/19 08:00:42;;;;;;;5.00;3.47;;;13.90;99.90;;;;;;5094464;28;20443;-78
2022/04/19 08:03:08;;;;;;;5.33;3.23;;;14.10;99.90;;;;;;5097428;28;20776;-77
2022/04/19 08:05:34;;;;;;;5.10;3.70;;;14.30;99.90;;;;;;5081645;28;20479;-76
2022/04/19 08:07:59;;;;;;;6.20;4.00;;;14.50;99.90;;;;;;5093116;28;20171;-77
2022/04/19 08:10:25;;;;;;;6.30;4.23;;;14.60;99.90;;;;;;5075073;28;20189;-78
2022/04/19 08:12:51;;;;;;;6.70;4.00;;;14.80;99.90;;;;;;5076267;28;20193;-78
2022/04/19 08:15:18;;;;;;;7.77;4.23;;;14.90;99.90;;;;;;5075243;28;20205;-77
2022/04/19 08:17:43;;;;;;;6.30;4.40;;;15.10;99.90;;;;;;5075448;28;20434;-78
2022/04/19 08:20:13;;;;;;;5.90;3.80;;;15.30;99.90;;;;;;5075281;28;20432;-78
2022/04/19 08:22:38;;;;;;;6.90;4.20;;;15.40;99.90;;;;;;5075347;28;20630;-77
2022/04/19 08:25:10;;;;;;;7.23;4.47;;;15.50;99.90;;;;;;5075768;28;20547;-78
2022/04/19 08:27:41;;;;;;;5.90;4.27;;;15.70;99.90;;;;;;5075159;28;20185;-77
2022/04/19 08:30:08;;;;;;;5.67;3.60;;;15.80;99.90;;;;;;5074879;28;20507;-77
2022/04/19 08:32:34;;;;;;;7.03;4.70;;;16.00;99.90;;;;;;5075741;28;20937;-77
2022/04/19 08:35:00;;;;;;;6.23;4.37;;;17.00;99.90;;;;;;5075385;28;20460;-79
2022/04/19 08:37:34;;;;;;;6.20;4.47;;;18.50;98.00;;;;;;5075725;28;20436;-78
2022/04/19 08:40:01;;;;;;;7.80;4.90;;;20.30;91.60;;;;;;5075169;28;20628;-77
2022/04/19 08:42:29;;;;;;;5.60;4.00;;;21.70;76.10;;;;;;5074981;28;20432;-77
2022/04/19 08:45:02;;;;;;;6.33;4.00;;;23.30;65.20;;;;;;5075179;28;20547;-78
2022/04/19 08:47:31;;;;;;;9.77;5.17;;;25.70;55.60;;;;;;5073852;28;20565;-78
2022/04/19 08:50:01;;;;;;;7.57;4.97;;;26.10;52.10;;;;;;5073945;28;20512;-78
2022/04/19 08:52:27;;;;;;;9.33;4.60;;;27.30;48.70;;;;;;5074136;28;20427;-78
2022/04/19 08:57:39;;;;;;;6.97;4.83;;;29.60;39.00;;;;;;5092446;28;20523;-78
2022/04/19 09:00:07;;;;;;;6.73;4.20;;;30.30;36.10;;;;;;5073976;28;20423;-78
2022/04/19 09:02:38;;;;;;;7.33;4.13;;;30.70;34.90;;;;;;5073971;28;20416;-79
2022/04/19 09:05:17;;;;;;;6.27;4.47;;;31.60;34.10;;;;;;5073789;28;20420;-79
2022/04/19 09:07:45;;;;;;;8.87;5.07;;;32.20;32.70;;;;;;5073471;28;20827;-79
2022/04/19 09:10:14;;;;;;;7.70;5.10;;;33.00;31.90;;;;;;5073150;28;20420;-79
2022/04/19 09:13:01;;;;;;;5.47;3.97;;;33.70;31.30;;;;;;5073811;28;20428;-77
2022/04/19 09:15:38;;;;;;;5.40;4.10;;;34.70;30.70;;;;;;5073278;28;20536;-77
2022/04/19 09:18:05;;;;;;;6.03;4.10;;;35.30;28.10;;;;;;5073224;28;20425;-77
2022/04/19 09:20:31;;;;;;;7.10;5.27;;;35.40;27.10;;;;;;5073406;28;20798;-77
2022/04/19 09:23:06;;;;;;;6.67;4.73;;;35.10;25.70;;;;;;5073592;28;20534;-76
2022/04/19 09:25:32;;;;;;;5.93;4.50;;;34.80;26.30;;;;;;5072987;28;20447;-77
2022/04/19 09:27:59;;;;;;;5.60;4.00;;;35.50;28.10;;;;;;5073226;28;20424;-77
2022/04/19 09:30:34;;;;;;;6.60;4.60;;;36.60;27.20;;;;;;5073556;28;20425;-76
2022/04/19 09:33:05;;;;;;;7.10;5.10;;;37.40;26.70;;;;;;5073688;28;20419;-78
2022/04/19 09:35:47;;;;;;;7.00;4.73;;;38.10;25.30;;;;;;5076689;28;20499;-78
2022/04/19 09:38:14;;;;;;;7.17;5.10;;;37.70;24.40;;;;;;5077605;28;20495;-77
2022/04/19 09:40:45;;;;;;;6.10;4.60;;;38.50;24.60;;;;;;5077557;28;20562;-78
2022/04/19 09:43:21;;;;;;;5.90;4.97;;;39.00;24.60;;;;;;5077262;28;20417;-77
2022/04/19 09:46:02;;;;;;;8.00;5.43;;;39.30;24.50;;;;;;5077334;28;20526;-78
2022/04/19 09:48:31;;;;;;;5.90;4.53;;;39.50;23.60;;;;;;5076335;28;20840;-75
2022/04/19 09:51:09;;;;;;;6.47;5.60;;;39.60;23.60;;;;;;5076292;28;20593;-75
2022/04/19 09:53:45;;;;;;;7.73;4.60;;;38.50;22.80;;;;;;5076390;28;20408;-76
2022/04/19 09:56:16;;;;;;;7.90;4.67;;;39.30;23.30;;;;;;5075551;28;20454;-75
2022/04/19 09:58:47;;;;;;;7.10;4.97;;;39.80;23.50;;;;;;5076302;28;20930;-76
2022/04/19 10:09:32;;;;;;;6.70;4.40;;;40.60;23.40;;;;;;5094243;28;20458;-76
2022/04/19 10:11:58;;;;;;;6.20;4.70;;;40.70;22.10;;;;;;5075726;28;20780;-75
2022/04/19 10:14:24;;;;;;;7.20;5.10;;;41.00;22.90;;;;;;5075714;28;20469;-75
2022/04/19 10:16:50;;;;;;;7.20;4.80;;;41.00;21.30;;;;;;5075217;28;20236;-76
2022/04/19 10:19:17;;;;;;;6.50;4.77;;;41.40;21.90;;;;;;5075534;28;20856;-75
2022/04/19 10:21:45;;;;;;;6.37;4.97;;;41.50;21.50;;;;;;5075766;28;20169;-76
2022/04/19 10:24:16;;;;;;;7.33;5.20;;;41.40;21.60;;;;;;5075474;28;20469;-77
2022/04/19 10:26:49;;;;;;;6.03;4.40;;;41.50;21.90;;;;;;5075426;28;20515;-76
2022/04/19 10:29:21;;;;;;;7.60;4.80;;;41.70;21.60;;;;;;5075769;28;20511;-77
2022/04/19 10:32:06;;;;;;;6.50;4.93;;;42.60;22.20;;;;;;5075753;28;20472;-77
2022/04/19 10:34:36;;;;;;;5.63;4.50;;;42.70;20.90;;;;;;5075476;28;20982;-76
2022/04/19 10:37:23;;;;;;;6.50;4.20;;;42.20;21.00;;;;;;5075629;28;20508;-77
2022/04/19 10:39:54;;;;;;;6.43;4.50;;;42.90;20.00;;;;;;5076408;28;20438;-77
2022/04/19 10:42:32;;;;;;;6.60;4.67;;;42.70;19.80;;;;;;5076154;28;20424;-76
2022/04/19 10:45:13;;;;;;;5.63;4.27;;;42.40;20.00;;;;;;5075093;28;20419;-77
2022/04/19 10:47:51;;;;;;;5.30;4.20;;;42.20;19.90;;;;;;5080155;28;20437;-76
2022/04/19 10:50:33;;;;;;;5.20;4.03;;;41.70;19.60;;;;;;5095209;28;20475;-76
2022/04/19 10:53:02;;;;;;;5.07;4.00;;;40.90;20.10;;;;;;5095507;28;20462;-76
2022/04/19 10:55:30;;;;;;;5.20;4.03;;;40.30;20.40;;;;;;5094611;28;20479;-77
2022/04/19 11:00:49;;;;;;;4.97;3.53;;;41.30;20.80;;;;;;5113631;28;20415;-77
2022/04/19 11:03:18;;;;;;;4.97;3.30;;;40.30;18.80;;;;;;5095120;28;20765;-77
2022/04/19 11:05:57;;;;;;;4.20;3.33;;;39.50;20.10;;;;;;5095019;28;20443;-76
2022/04/19 11:08:25;;;;;;;3.90;2.67;;;39.10;20.90;;;;;;5094615;28;20419;-76
2022/04/19 11:11:04;;;;;;;4.60;3.50;;;38.80;19.80;;;;;;5094646;28;20454;-77
2022/04/19 11:13:38;;;;;;;3.63;2.70;;;37.50;20.60;;;;;;5094871;28;20416;-76
2022/04/19 11:16:13;;;;;;;4.40;3.00;;;37.30;21.90;;;;;;5088965;22;20506;-86
2022/04/19 11:18:41;;;;;;;5.23;3.63;;;37.50;22.40;;;;;;5034218;28;20509;-87
2022/04/19 11:21:12;;;;;;;5.30;3.83;;;38.00;21.70;;;;;;5052196;28;20460;-87
2022/04/19 11:23:44;;;;;;;4.83;3.90;;;37.90;21.60;;;;;;5052565;28;20395;-86
2022/04/19 11:26:35;;;;;;;5.40;3.93;;;39.00;21.70;;;;;;5034441;28;20469;-86
2022/04/19 11:29:10;;;;;;;5.97;3.33;;;39.40;21.90;;;;;;5051251;28;20422;-87
2022/04/19 11:31:36;;;;;;;4.57;3.37;;;40.50;21.00;;;;;;5052590;28;20408;-87
2022/04/19 11:34:16;;;;;;;5.40;3.50;;;40.50;21.00;;;;;;5050796;28;20410;-86
2022/04/19 11:36:43;;;;;;;3.70;3.00;;;40.10;20.70;;;;;;5050556;28;20474;-87
2022/04/19 11:46:43;;;;;;;3.50;2.70;;;40.50;21.20;;;;;;5050961;28;20421;-84
2022/04/19 11:47:44;;;;;;;5.43;3.13;;;40.30;20.50;;;;;;5051963;28;20978;-85
2022/04/19 11:50:29;;;;;;;5.13;3.40;;;39.90;19.70;;;;;;5050887;28;21070;-85
2022/04/19 11:52:55;;;;;;;4.30;2.93;;;38.80;20.30;;;;;;5050986;28;20468;-84
2022/04/19 11:55:24;;;;;;;3.90;3.00;;;38.60;21.50;;;;;;5050319;28;21154;-85
2022/04/19 11:58:02;;;;;;;3.70;2.20;;;38.40;21.10;;;;;;5050533;28;20168;-84
2022/04/19 12:00:27;;;;;;;4.00;3.30;;;37.30;21.20;;;;;;5050598;28;20421;-85
2022/04/19 12:02:53;;;;;;;3.63;2.53;;;35.90;22.20;;;;;;5052226;28;20419;-84
2022/04/19 12:05:26;;;;;;;3.73;2.43;;;35.60;22.20;;;;;;5050343;28;20214;-85
2022/04/19 12:07:53;;;;;;;3.77;2.60;;;35.40;22.00;;;;;;5050292;28;20180;-84
2022/04/19 12:10:19;;;;;;;4.10;2.80;;;36.50;22.10;;;;;;5051401;28;20415;-84
2022/04/19 12:12:46;;;;;;;3.33;2.80;;;36.60;21.60;;;;;;5050707;28;20457;-85
2022/04/19 12:15:12;;;;;;;4.50;2.70;;;37.00;21.40;;;;;;5051222;28;20473;-84
2022/04/19 12:17:44;;;;;;;3.17;2.17;;;36.70;20.70;;;;;;5051330;28;20406;-84
2022/04/19 12:20:10;;;;;;;3.53;2.30;;;37.10;21.00;;;;;;5041952;28;20430;-85
2022/04/19 12:22:36;;;;;;;3.80;2.50;;;38.70;21.80;;;;;;5033921;28;20414;-84
2022/04/19 12:25:03;;;;;;;4.00;2.53;;;40.20;21.20;;;;;;5033874;28;20223;-84
2022/04/19 12:27:32;;;;;;;3.20;2.20;;;40.90;21.30;;;;;;5051058;28;20179;-85
2022/04/19 12:30:08;;;;;;;4.23;2.33;;;40.60;20.70;;;;;;5034131;28;20418;-85
2022/04/19 12:32:55;;;;;;;3.27;2.63;;;40.50;21.10;;;;;;5034001;28;20417;-85
2022/04/19 12:35:28;;;;;;;4.20;2.80;;;40.00;21.10;;;;;;5033707;28;20465;-85
2022/04/19 12:38:31;;;;;;;3.30;2.40;;;40.20;21.40;;;;;;5033406;28;20406;-84
2022/04/19 12:40:57;;;;;;;4.20;3.07;;;39.90;22.10;;;;;;5024133;28;20512;-85
2022/04/19 12:43:42;;;;;;;4.50;3.70;;;40.20;21.20;;;;;;5051725;28;20410;-84
2022/04/19 12:46:08;;;;;;;4.13;3.13;;;39.90;21.20;;;;;;5033783;28;20539;-85
2022/04/19 12:48:33;;;;;;;5.23;3.87;;;39.90;21.10;;;;;;5033340;28;20422;-85
2022/04/19 12:51:05;;;;;;;3.87;2.50;;;39.20;21.50;;;;;;5033840;28;20186;-84
2022/04/19 12:53:33;;;;;;;4.30;3.70;;;39.20;23.40;;;;;;5051672;28;20176;-84
2022/04/19 12:56:11;;;;;;;5.80;3.80;;;39.30;22.40;;;;;;5051520;28;20569;-84
2022/04/19 12:58:49;;;;;;;5.53;3.53;;;38.80;22.50;;;;;;5051006;28;20486;-85
2022/04/19 13:01:14;;;;;;;4.70;3.40;;;38.30;22.20;;;;;;5033687;28;20413;-84
2022/04/19 13:03:40;;;;;;;3.90;3.10;;;37.90;22.60;;;;;;5051523;28;20464;-85
2022/04/19 13:14:18;;;;;;;6.10;3.13;;;37.10;23.90;;;;;;5055317;28;20512;-85
2022/04/19 13:16:44;;;;;;;3.70;2.93;;;37.00;23.80;;;;;;5054323;28;20493;-86
2022/04/19 13:19:09;;;;;;;4.57;3.10;;;36.90;25.30;;;;;;5047857;28;20186;-85
2022/04/19 13:21:35;;;;;;;4.57;2.90;;;37.00;25.30;;;;;;5075100;28;20182;-85
2022/04/19 13:24:01;;;;;;;4.30;3.33;;;37.40;24.40;;;;;;5056476;28;20182;-86
2022/04/19 13:26:28;;;;;;;4.80;3.03;;;37.80;24.20;;;;;;5055915;28;20599;-86
2022/04/19 13:28:53;;;;;;;4.00;3.13;;;38.40;23.70;;;;;;5056587;28;20866;-85
2022/04/19 13:31:19;;;;;;;5.30;3.43;;;38.40;23.30;;;;;;5074823;28;20433;-85
2022/04/19 13:33:44;;;;;;;3.97;3.00;;;37.90;22.00;;;;;;5056946;28;20229;-85
2022/04/19 13:36:10;;;;;;;5.03;3.50;;;38.90;23.10;;;;;;5056270;28;20264;-84
2022/04/19 13:38:37;;;;;;;4.60;3.47;;;38.60;22.00;;;;;;5056355;28;20175;-85
2022/04/19 13:41:03;;;;;;;4.53;3.30;;;38.90;23.80;;;;;;5056597;28;20171;-85
2022/04/19 13:43:29;;;;;;;4.60;3.70;;;39.70;22.60;;;;;;5056718;28;20421;-84
2022/04/19 13:45:54;;;;;;;5.90;3.37;;;39.90;22.00;;;;;;5056288;28;20202;-85
2022/04/19 13:48:20;;;;;;;4.77;3.53;;;40.20;22.10;;;;;;5055882;28;20222;-85
2022/04/19 13:50:46;;;;;;;4.53;3.30;;;40.20;21.90;;;;;;5056823;28;20187;-85
2022/04/19 13:53:12;;;;;;;4.13;3.20;;;39.50;21.90;;;;;;5074689;28;20197;-85